sensor_id;sensor_type;location;lat;lon;timestamp;P1;durP1;ratioP1;P2;durP2;ratioP2
52512;SDS011;38422;53.172;6.974;2024-02-16T00:01:10;6.18;;;2.58;;
52512;SDS011;38422;53.172;6.974;2024-02-16T00:03:36;5.32;;;2.15;;
52512;SDS011;38422;53.172;6.974;2024-02-16T00:06:01;6.78;;;2.33;;
52512;SDS011;38422;53.172;6.974;2024-02-16T00:08:27;5.47;;;2.35;;
52512;SDS011;38422;53.172;6.974;2024-02-16T00:10:53;5.93;;;2.50;;
52512;SDS011;38422;53.172;6.974;2024-02-16T00:13:18;6.20;;;2.28;;
52512;SDS011;38422;53.172;6.974;2024-02-16T00:15:44;6.75;;;2.45;;
52512;SDS011;38422;53.172;6.974;2024-02-16T00:18:10;9.48;;;2.60;;
52512;SDS011;38422;53.172;6.974;2024-02-16T00:20:36;5.03;;;2.45;;
52512;SDS011;38422;53.172;6.974;2024-02-16T00:23:02;6.10;;;2.50;;
52512;SDS011;38422;53.172;6.974;2024-02-16T00:25:29;5.57;;;2.33;;
52512;SDS011;38422;53.172;6.974;2024-02-16T00:27:54;4.80;;;2.47;;
52512;SDS011;38422;53.172;6.974;2024-02-16T00:30:20;5.63;;;2.45;;
52512;SDS011;38422;53.172;6.974;2024-02-16T00:32:47;5.63;;;2.47;;
52512;SDS011;38422;53.172;6.974;2024-02-16T00:35:16;5.82;;;2.47;;
52512;SDS011;38422;53.172;6.974;2024-02-16T00:37:43;4.47;;;2.40;;
52512;SDS011;38422;53.172;6.974;2024-02-16T00:40:09;4.95;;;2.40;;
52512;SDS011;38422;53.172;6.974;2024-02-16T00:42:35;4.53;;;2.22;;
52512;SDS011;38422;53.172;6.974;2024-02-16T00:45:01;7.05;;;2.40;;
52512;SDS011;38422;53.172;6.974;2024-02-16T00:47:26;5.13;;;2.28;;
52512;SDS011;38422;53.172;6.974;2024-02-16T00:49:52;4.88;;;2.30;;
52512;SDS011;38422;53.172;6.974;2024-02-16T00:52:18;4.43;;;2.10;;
52512;SDS011;38422;53.172;6.974;2024-02-16T00:54:44;4.25;;;2.03;;
52512;SDS011;38422;53.172;6.974;2024-02-16T00:57:11;5.65;;;2.20;;
52512;SDS011;38422;53.172;6.974;2024-02-16T00:59:39;5.85;;;2.40;;
52512;SDS011;38422;53.172;6.974;2024-02-16T01:02:05;8.68;;;2.60;;
52512;SDS011;38422;53.172;6.974;2024-02-16T01:04:32;6.10;;;2.30;;
52512;SDS011;38422;53.172;6.974;2024-02-16T01:06:58;4.93;;;2.15;;
52512;SDS011;38422;53.172;6.974;2024-02-16T01:09:24;5.15;;;2.33;;
52512;SDS011;38422;53.172;6.974;2024-02-16T01:11:50;4.78;;;2.25;;
52512;SDS011;38422;53.172;6.974;2024-02-16T01:14:15;5.38;;;2.25;;
52512;SDS011;38422;53.172;6.974;2024-02-16T01:16:41;7.32;;;2.58;;
52512;SDS011;38422;53.172;6.974;2024-02-16T01:19:07;4.45;;;2.17;;
52512;SDS011;38422;53.172;6.974;2024-02-16T01:21:34;4.05;;;2.17;;
52512;SDS011;38422;53.172;6.974;2024-02-16T01:24:00;7.05;;;2.35;;
52512;SDS011;38422;53.172;6.974;2024-02-16T01:26:26;4.30;;;2.25;;
52512;SDS011;38422;53.172;6.974;2024-02-16T01:28:53;5.55;;;2.47;;
52512;SDS011;38422;53.172;6.974;2024-02-16T01:31:18;4.00;;;2.42;;
52512;SDS011;38422;53.172;6.974;2024-02-16T01:33:44;7.82;;;2.33;;
52512;SDS011;38422;53.172;6.974;2024-02-16T01:36:10;5.13;;;2.22;;
52512;SDS011;38422;53.172;6.974;2024-02-16T01:38:36;5.70;;;2.20;;
52512;SDS011;38422;53.172;6.974;2024-02-16T01:41:02;5.45;;;2.20;;
52512;SDS011;38422;53.172;6.974;2024-02-16T01:43:27;4.70;;;2.30;;
52512;SDS011;38422;53.172;6.974;2024-02-16T01:45:53;6.82;;;2.38;;
52512;SDS011;38422;53.172;6.974;2024-02-16T01:48:19;6.35;;;2.17;;
52512;SDS011;38422;53.172;6.974;2024-02-16T01:50:45;5.60;;;2.20;;
52512;SDS011;38422;53.172;6.974;2024-02-16T01:53:13;4.78;;;2.03;;
52512;SDS011;38422;53.172;6.974;2024-02-16T01:55:42;4.55;;;2.10;;
52512;SDS011;38422;53.172;6.974;2024-02-16T01:58:08;5.90;;;2.15;;
52512;SDS011;38422;53.172;6.974;2024-02-16T02:00:34;4.18;;;1.80;;
52512;SDS011;38422;53.172;6.974;2024-02-16T02:03:00;7.80;;;2.08;;
52512;SDS011;38422;53.172;6.974;2024-02-16T02:05:25;4.28;;;1.80;;
52512;SDS011;38422;53.172;6.974;2024-02-16T02:07:51;3.28;;;1.73;;
52512;SDS011;38422;53.172;6.974;2024-02-16T02:10:18;7.23;;;2.33;;
52512;SDS011;38422;53.172;6.974;2024-02-16T02:12:44;5.13;;;2.00;;
52512;SDS011;38422;53.172;6.974;2024-02-16T02:15:10;5.30;;;2.10;;
52512;SDS011;38422;53.172;6.974;2024-02-16T02:17:36;4.80;;;1.77;;
52512;SDS011;38422;53.172;6.974;2024-02-16T02:20:02;5.65;;;2.03;;
52512;SDS011;38422;53.172;6.974;2024-02-16T02:22:29;3.90;;;1.98;;
52512;SDS011;38422;53.172;6.974;2024-02-16T02:24:54;5.25;;;1.80;;
52512;SDS011;38422;53.172;6.974;2024-02-16T02:27:20;4.45;;;1.85;;
52512;SDS011;38422;53.172;6.974;2024-02-16T02:29:46;5.63;;;2.08;;
52512;SDS011;38422;53.172;6.974;2024-02-16T02:32:12;3.75;;;1.60;;
52512;SDS011;38422;53.172;6.974;2024-02-16T02:34:38;5.28;;;1.80;;
52512;SDS011;38422;53.172;6.974;2024-02-16T02:37:05;4.47;;;1.80;;
52512;SDS011;38422;53.172;6.974;2024-02-16T02:39:31;5.82;;;1.70;;
52512;SDS011;38422;53.172;6.974;2024-02-16T02:41:57;5.03;;;2.10;;
52512;SDS011;38422;53.172;6.974;2024-02-16T02:44:24;3.88;;;1.95;;
52512;SDS011;38422;53.172;6.974;2024-02-16T02:46:50;4.85;;;1.98;;
52512;SDS011;38422;53.172;6.974;2024-02-16T02:49:17;4.45;;;2.00;;
52512;SDS011;38422;53.172;6.974;2024-02-16T02:51:42;6.88;;;1.80;;
52512;SDS011;38422;53.172;6.974;2024-02-16T02:54:08;5.80;;;1.95;;
52512;SDS011;38422;53.172;6.974;2024-02-16T02:56:34;4.35;;;1.70;;
52512;SDS011;38422;53.172;6.974;2024-02-16T02:59:00;6.95;;;1.98;;
52512;SDS011;38422;53.172;6.974;2024-02-16T03:01:26;4.28;;;1.88;;
52512;SDS011;38422;53.172;6.974;2024-02-16T03:03:51;4.50;;;1.75;;
52512;SDS011;38422;53.172;6.974;2024-02-16T03:06:20;4.40;;;1.70;;
52512;SDS011;38422;53.172;6.974;2024-02-16T03:08:46;3.33;;;1.67;;
52512;SDS011;38422;53.172;6.974;2024-02-16T03:11:12;4.38;;;1.70;;
52512;SDS011;38422;53.172;6.974;2024-02-16T03:13:38;5.32;;;1.85;;
52512;SDS011;38422;53.172;6.974;2024-02-16T03:16:04;4.55;;;1.88;;
52512;SDS011;38422;53.172;6.974;2024-02-16T03:18:33;4.13;;;1.60;;
52512;SDS011;38422;53.172;6.974;2024-02-16T03:21:01;5.20;;;1.90;;
52512;SDS011;38422;53.172;6.974;2024-02-16T03:23:27;5.30;;;1.80;;
52512;SDS011;38422;53.172;6.974;2024-02-16T03:25:53;3.75;;;1.70;;
52512;SDS011;38422;53.172;6.974;2024-02-16T03:28:19;7.10;;;1.93;;
52512;SDS011;38422;53.172;6.974;2024-02-16T03:30:45;5.68;;;1.60;;
52512;SDS011;38422;53.172;6.974;2024-02-16T03:33:11;3.85;;;1.63;;
52512;SDS011;38422;53.172;6.974;2024-02-16T03:35:38;3.65;;;1.88;;
52512;SDS011;38422;53.172;6.974;2024-02-16T03:38:05;2.60;;;1.70;;
52512;SDS011;38422;53.172;6.974;2024-02-16T03:40:31;4.97;;;1.83;;
52512;SDS011;38422;53.172;6.974;2024-02-16T03:42:57;2.80;;;1.55;;
52512;SDS011;38422;53.172;6.974;2024-02-16T03:45:23;5.97;;;1.80;;
52512;SDS011;38422;53.172;6.974;2024-02-16T03:47:49;3.92;;;1.80;;
52512;SDS011;38422;53.172;6.974;2024-02-16T03:50:17;5.93;;;2.35;;
52512;SDS011;38422;53.172;6.974;2024-02-16T03:52:43;5.55;;;1.60;;
52512;SDS011;38422;53.172;6.974;2024-02-16T03:55:09;4.38;;;2.10;;
52512;SDS011;38422;53.172;6.974;2024-02-16T03:57:35;3.50;;;1.83;;
52512;SDS011;38422;53.172;6.974;2024-02-16T04:00:02;4.20;;;2.00;;
52512;SDS011;38422;53.172;6.974;2024-02-16T04:02:30;4.97;;;2.10;;
52512;SDS011;38422;53.172;6.974;2024-02-16T04:04:56;5.88;;;1.88;;
52512;SDS011;38422;53.172;6.974;2024-02-16T04:07:22;4.25;;;2.10;;
52512;SDS011;38422;53.172;6.974;2024-02-16T04:09:49;5.05;;;2.22;;
52512;SDS011;38422;53.172;6.974;2024-02-16T04:12:14;5.05;;;2.03;;
52512;SDS011;38422;53.172;6.974;2024-02-16T04:14:40;6.45;;;2.30;;
52512;SDS011;38422;53.172;6.974;2024-02-16T04:17:07;4.97;;;1.90;;
52512;SDS011;38422;53.172;6.974;2024-02-16T04:19:32;2.83;;;1.75;;
52512;SDS011;38422;53.172;6.974;2024-02-16T04:21:58;4.65;;;1.83;;
52512;SDS011;38422;53.172;6.974;2024-02-16T04:24:24;4.22;;;2.00;;
52512;SDS011;38422;53.172;6.974;2024-02-16T04:26:49;5.53;;;2.08;;
52512;SDS011;38422;53.172;6.974;2024-02-16T04:29:15;4.38;;;1.73;;
52512;SDS011;38422;53.172;6.974;2024-02-16T04:31:41;5.38;;;1.90;;
52512;SDS011;38422;53.172;6.974;2024-02-16T04:34:08;5.10;;;2.05;;
52512;SDS011;38422;53.172;6.974;2024-02-16T04:36:34;6.63;;;2.05;;
52512;SDS011;38422;53.172;6.974;2024-02-16T04:39:00;4.82;;;2.22;;
52512;SDS011;38422;53.172;6.974;2024-02-16T04:41:26;5.90;;;2.08;;
52512;SDS011;38422;53.172;6.974;2024-02-16T04:43:52;4.70;;;1.90;;
52512;SDS011;38422;53.172;6.974;2024-02-16T04:46:18;5.25;;;1.90;;
52512;SDS011;38422;53.172;6.974;2024-02-16T04:48:44;6.90;;;2.00;;
52512;SDS011;38422;53.172;6.974;2024-02-16T04:51:11;4.00;;;1.83;;
52512;SDS011;38422;53.172;6.974;2024-02-16T04:53:37;5.55;;;1.70;;
52512;SDS011;38422;53.172;6.974;2024-02-16T04:56:02;3.50;;;1.65;;
52512;SDS011;38422;53.172;6.974;2024-02-16T04:58:30;3.85;;;2.10;;
52512;SDS011;38422;53.172;6.974;2024-02-16T05:00:56;6.18;;;2.00;;
52512;SDS011;38422;53.172;6.974;2024-02-16T05:03:22;5.00;;;2.38;;
52512;SDS011;38422;53.172;6.974;2024-02-16T05:05:49;4.43;;;2.08;;
52512;SDS011;38422;53.172;6.974;2024-02-16T05:08:14;3.78;;;1.83;;
52512;SDS011;38422;53.172;6.974;2024-02-16T05:10:40;6.55;;;2.10;;
52512;SDS011;38422;53.172;6.974;2024-02-16T05:13:06;6.00;;;2.03;;
52512;SDS011;38422;53.172;6.974;2024-02-16T05:15:31;4.05;;;2.10;;
52512;SDS011;38422;53.172;6.974;2024-02-16T05:17:58;5.20;;;2.10;;
52512;SDS011;38422;53.172;6.974;2024-02-16T05:20:23;6.32;;;2.20;;
52512;SDS011;38422;53.172;6.974;2024-02-16T05:22:49;3.92;;;1.90;;
52512;SDS011;38422;53.172;6.974;2024-02-16T05:25:15;5.10;;;1.90;;
52512;SDS011;38422;53.172;6.974;2024-02-16T05:27:44;4.43;;;2.20;;
52512;SDS011;38422;53.172;6.974;2024-02-16T05:30:11;3.67;;;1.70;;
52512;SDS011;38422;53.172;6.974;2024-02-16T05:32:39;5.55;;;2.08;;
52512;SDS011;38422;53.172;6.974;2024-02-16T05:35:05;4.68;;;2.08;;
52512;SDS011;38422;53.172;6.974;2024-02-16T05:37:46;3.22;;;1.83;;
52512;SDS011;38422;53.172;6.974;2024-02-16T05:40:14;4.50;;;2.15;;
52512;SDS011;38422;53.172;6.974;2024-02-16T05:42:49;8.27;;;2.22;;
52512;SDS011;38422;53.172;6.974;2024-02-16T05:45:16;5.07;;;2.10;;
52512;SDS011;38422;53.172;6.974;2024-02-16T05:47:43;4.57;;;2.00;;
52512;SDS011;38422;53.172;6.974;2024-02-16T05:50:10;4.43;;;2.22;;
52512;SDS011;38422;53.172;6.974;2024-02-16T05:52:37;4.20;;;1.92;;
52512;SDS011;38422;53.172;6.974;2024-02-16T05:55:04;9.20;;;2.25;;
52512;SDS011;38422;53.172;6.974;2024-02-16T05:59:56;4.53;;;2.20;;
52512;SDS011;38422;53.172;6.974;2024-02-16T06:02:23;4.22;;;2.00;;
52512;SDS011;38422;53.172;6.974;2024-02-16T06:04:53;5.57;;;2.50;;
52512;SDS011;38422;53.172;6.974;2024-02-16T06:07:18;6.32;;;2.30;;
52512;SDS011;38422;53.172;6.974;2024-02-16T06:09:44;5.55;;;2.17;;
52512;SDS011;38422;53.172;6.974;2024-02-16T06:12:10;4.13;;;2.00;;
52512;SDS011;38422;53.172;6.974;2024-02-16T06:14:37;4.55;;;2.30;;
52512;SDS011;38422;53.172;6.974;2024-02-16T06:17:03;4.80;;;2.10;;
52512;SDS011;38422;53.172;6.974;2024-02-16T06:19:29;5.57;;;2.00;;
52512;SDS011;38422;53.172;6.974;2024-02-16T06:21:55;5.75;;;2.20;;
52512;SDS011;38422;53.172;6.974;2024-02-16T06:24:22;5.18;;;2.30;;
52512;SDS011;38422;53.172;6.974;2024-02-16T06:26:48;4.70;;;2.17;;
52512;SDS011;38422;53.172;6.974;2024-02-16T06:29:15;4.65;;;2.00;;
52512;SDS011;38422;53.172;6.974;2024-02-16T06:31:40;5.35;;;2.20;;
52512;SDS011;38422;53.172;6.974;2024-02-16T06:34:06;4.13;;;2.30;;
52512;SDS011;38422;53.172;6.974;2024-02-16T06:36:33;4.22;;;2.20;;
52512;SDS011;38422;53.172;6.974;2024-02-16T06:38:59;6.40;;;2.45;;
52512;SDS011;38422;53.172;6.974;2024-02-16T06:41:25;4.93;;;2.40;;
52512;SDS011;38422;53.172;6.974;2024-02-16T06:43:50;5.57;;;2.78;;
52512;SDS011;38422;53.172;6.974;2024-02-16T06:46:16;7.70;;;2.90;;
52512;SDS011;38422;53.172;6.974;2024-02-16T06:48:42;4.82;;;2.28;;
52512;SDS011;38422;53.172;6.974;2024-02-16T06:51:08;4.05;;;2.20;;
52512;SDS011;38422;53.172;6.974;2024-02-16T06:53:34;3.97;;;2.17;;
52512;SDS011;38422;53.172;6.974;2024-02-16T06:55:59;4.28;;;1.63;;
52512;SDS011;38422;53.172;6.974;2024-02-16T06:58:25;3.65;;;1.80;;
52512;SDS011;38422;53.172;6.974;2024-02-16T07:00:51;4.75;;;1.50;;
52512;SDS011;38422;53.172;6.974;2024-02-16T07:03:17;3.80;;;1.88;;
52512;SDS011;38422;53.172;6.974;2024-02-16T07:05:43;3.63;;;1.47;;
52512;SDS011;38422;53.172;6.974;2024-02-16T07:08:09;5.18;;;1.50;;
52512;SDS011;38422;53.172;6.974;2024-02-16T07:10:34;6.35;;;1.75;;
52512;SDS011;38422;53.172;6.974;2024-02-16T07:13:00;4.57;;;1.45;;
52512;SDS011;38422;53.172;6.974;2024-02-16T07:15:26;4.00;;;1.60;;
52512;SDS011;38422;53.172;6.974;2024-02-16T07:17:53;3.85;;;1.75;;
52512;SDS011;38422;53.172;6.974;2024-02-16T07:20:18;6.18;;;1.60;;
52512;SDS011;38422;53.172;6.974;2024-02-16T07:22:44;2.97;;;1.45;;
52512;SDS011;38422;53.172;6.974;2024-02-16T07:25:13;2.90;;;1.60;;
52512;SDS011;38422;53.172;6.974;2024-02-16T07:27:38;3.45;;;1.58;;
52512;SDS011;38422;53.172;6.974;2024-02-16T07:30:04;4.07;;;1.50;;
52512;SDS011;38422;53.172;6.974;2024-02-16T07:32:30;3.45;;;1.75;;
52512;SDS011;38422;53.172;6.974;2024-02-16T07:34:56;2.95;;;1.10;;
52512;SDS011;38422;53.172;6.974;2024-02-16T07:37:22;3.45;;;1.40;;
52512;SDS011;38422;53.172;6.974;2024-02-16T07:39:47;4.38;;;1.40;;
52512;SDS011;38422;53.172;6.974;2024-02-16T07:42:13;5.72;;;1.70;;
52512;SDS011;38422;53.172;6.974;2024-02-16T07:44:39;3.35;;;1.40;;
52512;SDS011;38422;53.172;6.974;2024-02-16T07:47:05;4.60;;;1.60;;
52512;SDS011;38422;53.172;6.974;2024-02-16T07:49:30;3.42;;;1.23;;
52512;SDS011;38422;53.172;6.974;2024-02-16T07:51:56;3.83;;;1.70;;
52512;SDS011;38422;53.172;6.974;2024-02-16T07:54:22;5.47;;;1.20;;
52512;SDS011;38422;53.172;6.974;2024-02-16T07:56:48;4.90;;;1.70;;
52512;SDS011;38422;53.172;6.974;2024-02-16T07:59:14;3.95;;;1.50;;
52512;SDS011;38422;53.172;6.974;2024-02-16T08:01:40;3.85;;;1.50;;
52512;SDS011;38422;53.172;6.974;2024-02-16T08:04:09;3.90;;;1.52;;
52512;SDS011;38422;53.172;6.974;2024-02-16T08:06:35;4.05;;;1.40;;
52512;SDS011;38422;53.172;6.974;2024-02-16T08:09:01;3.35;;;1.60;;
52512;SDS011;38422;53.172;6.974;2024-02-16T08:11:27;3.35;;;1.35;;
52512;SDS011;38422;53.172;6.974;2024-02-16T08:13:52;6.50;;;1.65;;
52512;SDS011;38422;53.172;6.974;2024-02-16T08:16:18;4.13;;;1.48;;
52512;SDS011;38422;53.172;6.974;2024-02-16T08:18:44;3.63;;;1.48;;
52512;SDS011;38422;53.172;6.974;2024-02-16T08:21:10;3.90;;;1.30;;
52512;SDS011;38422;53.172;6.974;2024-02-16T08:23:36;4.75;;;1.40;;
52512;SDS011;38422;53.172;6.974;2024-02-16T08:26:03;5.40;;;1.90;;
52512;SDS011;38422;53.172;6.974;2024-02-16T08:28:29;4.30;;;1.38;;
52512;SDS011;38422;53.172;6.974;2024-02-16T08:30:58;3.58;;;1.52;;
52512;SDS011;38422;53.172;6.974;2024-02-16T08:33:23;3.92;;;1.60;;
52512;SDS011;38422;53.172;6.974;2024-02-16T08:35:49;3.30;;;1.33;;
52512;SDS011;38422;53.172;6.974;2024-02-16T08:38:15;3.17;;;1.52;;
52512;SDS011;38422;53.172;6.974;2024-02-16T08:40:41;3.95;;;1.83;;
52512;SDS011;38422;53.172;6.974;2024-02-16T08:43:07;4.28;;;1.77;;
52512;SDS011;38422;53.172;6.974;2024-02-16T08:45:33;4.63;;;1.60;;
52512;SDS011;38422;53.172;6.974;2024-02-16T08:47:59;4.55;;;1.77;;
52512;SDS011;38422;53.172;6.974;2024-02-16T08:50:27;4.25;;;1.50;;
52512;SDS011;38422;53.172;6.974;2024-02-16T08:52:53;3.42;;;1.40;;
52512;SDS011;38422;53.172;6.974;2024-02-16T08:55:19;6.87;;;1.80;;
52512;SDS011;38422;53.172;6.974;2024-02-16T08:57:45;3.80;;;1.55;;
52512;SDS011;38422;53.172;6.974;2024-02-16T09:00:11;3.85;;;1.73;;
52512;SDS011;38422;53.172;6.974;2024-02-16T09:02:38;3.10;;;1.60;;
52512;SDS011;38422;53.172;6.974;2024-02-16T09:05:04;3.53;;;2.08;;
52512;SDS011;38422;53.172;6.974;2024-02-16T09:07:30;5.57;;;2.05;;
52512;SDS011;38422;53.172;6.974;2024-02-16T09:09:56;4.40;;;1.90;;
52512;SDS011;38422;53.172;6.974;2024-02-16T09:12:22;7.18;;;2.00;;
52512;SDS011;38422;53.172;6.974;2024-02-16T09:14:48;2.97;;;1.52;;
52512;SDS011;38422;53.172;6.974;2024-02-16T09:17:13;5.50;;;1.60;;
52512;SDS011;38422;53.172;6.974;2024-02-16T09:19:39;3.75;;;1.45;;
52512;SDS011;38422;53.172;6.974;2024-02-16T09:22:05;2.75;;;1.58;;
52512;SDS011;38422;53.172;6.974;2024-02-16T09:24:31;4.75;;;1.40;;
52512;SDS011;38422;53.172;6.974;2024-02-16T09:26:57;4.65;;;1.95;;
52512;SDS011;38422;53.172;6.974;2024-02-16T09:29:28;5.70;;;1.60;;
52512;SDS011;38422;53.172;6.974;2024-02-16T09:31:54;3.90;;;1.67;;
52512;SDS011;38422;53.172;6.974;2024-02-16T09:34:20;3.25;;;1.63;;
52512;SDS011;38422;53.172;6.974;2024-02-16T09:36:46;4.93;;;1.58;;
52512;SDS011;38422;53.172;6.974;2024-02-16T09:39:12;3.40;;;1.55;;
52512;SDS011;38422;53.172;6.974;2024-02-16T09:41:37;3.90;;;1.60;;
52512;SDS011;38422;53.172;6.974;2024-02-16T09:44:07;4.20;;;1.65;;
52512;SDS011;38422;53.172;6.974;2024-02-16T09:49:03;4.43;;;1.73;;
52512;SDS011;38422;53.172;6.974;2024-02-16T09:51:30;5.22;;;1.80;;
52512;SDS011;38422;53.172;6.974;2024-02-16T09:53:56;4.75;;;2.30;;
52512;SDS011;38422;53.172;6.974;2024-02-16T09:56:22;5.22;;;2.45;;
52512;SDS011;38422;53.172;6.974;2024-02-16T10:01:20;6.15;;;2.83;;
52512;SDS011;38422;53.172;6.974;2024-02-16T10:03:47;6.28;;;2.67;;
52512;SDS011;38422;53.172;6.974;2024-02-16T10:06:14;7.05;;;2.50;;
52512;SDS011;38422;53.172;6.974;2024-02-16T10:08:48;4.97;;;2.22;;
52512;SDS011;38422;53.172;6.974;2024-02-16T10:11:17;6.65;;;2.30;;
52512;SDS011;38422;53.172;6.974;2024-02-16T10:16:22;5.20;;;2.03;;
52512;SDS011;38422;53.172;6.974;2024-02-16T10:18:48;6.82;;;2.13;;
52512;SDS011;38422;53.172;6.974;2024-02-16T10:21:23;5.85;;;2.10;;
52512;SDS011;38422;53.172;6.974;2024-02-16T10:24:00;3.88;;;1.60;;
52512;SDS011;38422;53.172;6.974;2024-02-16T10:26:36;3.80;;;1.77;;
52512;SDS011;38422;53.172;6.974;2024-02-16T10:29:04;4.72;;;2.08;;
52512;SDS011;38422;53.172;6.974;2024-02-16T10:31:31;4.75;;;2.00;;
52512;SDS011;38422;53.172;6.974;2024-02-16T10:33:59;4.55;;;2.10;;
52512;SDS011;38422;53.172;6.974;2024-02-16T10:36:27;6.97;;;2.33;;
52512;SDS011;38422;53.172;6.974;2024-02-16T10:38:54;3.75;;;2.00;;
52512;SDS011;38422;53.172;6.974;2024-02-16T10:41:22;6.68;;;2.25;;
52512;SDS011;38422;53.172;6.974;2024-02-16T10:43:55;4.20;;;2.35;;
52512;SDS011;38422;53.172;6.974;2024-02-16T10:46:22;5.05;;;2.40;;
52512;SDS011;38422;53.172;6.974;2024-02-16T10:48:48;8.15;;;2.53;;
52512;SDS011;38422;53.172;6.974;2024-02-16T10:51:14;3.13;;;1.83;;
52512;SDS011;38422;53.172;6.974;2024-02-16T10:53:44;6.05;;;2.30;;
52512;SDS011;38422;53.172;6.974;2024-02-16T10:56:12;6.78;;;1.88;;
52512;SDS011;38422;53.172;6.974;2024-02-16T10:58:38;6.18;;;2.65;;
52512;SDS011;38422;53.172;6.974;2024-02-16T11:01:14;5.40;;;2.50;;
52512;SDS011;38422;53.172;6.974;2024-02-16T11:03:40;6.57;;;2.30;;
52512;SDS011;38422;53.172;6.974;2024-02-16T11:06:15;4.50;;;2.30;;
52512;SDS011;38422;53.172;6.974;2024-02-16T11:08:42;5.50;;;2.63;;
52512;SDS011;38422;53.172;6.974;2024-02-16T11:11:08;5.45;;;2.72;;
52512;SDS011;38422;53.172;6.974;2024-02-16T11:13:37;6.30;;;2.55;;
52512;SDS011;38422;53.172;6.974;2024-02-16T11:16:12;4.03;;;2.20;;
52512;SDS011;38422;53.172;6.974;2024-02-16T11:18:41;6.35;;;2.60;;
52512;SDS011;38422;53.172;6.974;2024-02-16T11:21:15;4.00;;;2.25;;
52512;SDS011;38422;53.172;6.974;2024-02-16T11:23:41;4.97;;;2.30;;
52512;SDS011;38422;53.172;6.974;2024-02-16T11:26:11;7.18;;;2.42;;
52512;SDS011;38422;53.172;6.974;2024-02-16T11:28:39;8.95;;;3.33;;
52512;SDS011;38422;53.172;6.974;2024-02-16T11:31:06;7.03;;;2.78;;
52512;SDS011;38422;53.172;6.974;2024-02-16T11:33:32;4.93;;;2.70;;
52512;SDS011;38422;53.172;6.974;2024-02-16T11:35:59;7.43;;;2.85;;
52512;SDS011;38422;53.172;6.974;2024-02-16T11:38:27;5.85;;;3.10;;
52512;SDS011;38422;53.172;6.974;2024-02-16T11:40:56;5.32;;;3.00;;
52512;SDS011;38422;53.172;6.974;2024-02-16T11:43:24;5.50;;;3.08;;
52512;SDS011;38422;53.172;6.974;2024-02-16T11:45:50;6.70;;;3.00;;
52512;SDS011;38422;53.172;6.974;2024-02-16T11:48:20;6.07;;;3.30;;
52512;SDS011;38422;53.172;6.974;2024-02-16T11:50:58;7.30;;;3.67;;
52512;SDS011;38422;53.172;6.974;2024-02-16T11:53:25;8.05;;;4.28;;
52512;SDS011;38422;53.172;6.974;2024-02-16T11:55:51;8.35;;;4.30;;
52512;SDS011;38422;53.172;6.974;2024-02-16T11:58:17;7.70;;;4.30;;
52512;SDS011;38422;53.172;6.974;2024-02-16T12:00:44;9.13;;;4.82;;
52512;SDS011;38422;53.172;6.974;2024-02-16T12:03:11;11.43;;;6.28;;
52512;SDS011;38422;53.172;6.974;2024-02-16T12:05:37;11.68;;;7.85;;
52512;SDS011;38422;53.172;6.974;2024-02-16T12:08:03;10.52;;;6.30;;
52512;SDS011;38422;53.172;6.974;2024-02-16T12:10:31;11.50;;;7.07;;
52512;SDS011;38422;53.172;6.974;2024-02-16T12:12:57;10.45;;;6.50;;
52512;SDS011;38422;53.172;6.974;2024-02-16T12:15:23;9.45;;;6.13;;
52512;SDS011;38422;53.172;6.974;2024-02-16T12:17:58;8.38;;;5.03;;
52512;SDS011;38422;53.172;6.974;2024-02-16T12:20:25;8.88;;;4.93;;
52512;SDS011;38422;53.172;6.974;2024-02-16T12:22:51;7.35;;;4.60;;
52512;SDS011;38422;53.172;6.974;2024-02-16T12:25:17;8.60;;;4.75;;
52512;SDS011;38422;53.172;6.974;2024-02-16T12:27:42;7.90;;;4.55;;
52512;SDS011;38422;53.172;6.974;2024-02-16T12:30:08;8.82;;;4.38;;
52512;SDS011;38422;53.172;6.974;2024-02-16T12:32:34;9.52;;;4.10;;
52512;SDS011;38422;53.172;6.974;2024-02-16T12:35:00;6.82;;;3.45;;
52512;SDS011;38422;53.172;6.974;2024-02-16T12:37:25;6.45;;;3.90;;
52512;SDS011;38422;53.172;6.974;2024-02-16T12:39:51;10.38;;;4.60;;
52512;SDS011;38422;53.172;6.974;2024-02-16T12:42:17;7.28;;;3.70;;
52512;SDS011;38422;53.172;6.974;2024-02-16T12:44:42;6.65;;;3.83;;
52512;SDS011;38422;53.172;6.974;2024-02-16T12:47:08;6.32;;;3.70;;
52512;SDS011;38422;53.172;6.974;2024-02-16T12:49:34;6.15;;;3.50;;
52512;SDS011;38422;53.172;6.974;2024-02-16T12:52:00;7.95;;;3.22;;
52512;SDS011;38422;53.172;6.974;2024-02-16T12:54:26;4.88;;;3.08;;
52512;SDS011;38422;53.172;6.974;2024-02-16T12:56:52;5.07;;;3.00;;
52512;SDS011;38422;53.172;6.974;2024-02-16T12:59:18;5.47;;;2.33;;
52512;SDS011;38422;53.172;6.974;2024-02-16T13:01:44;4.07;;;2.35;;
52512;SDS011;38422;53.172;6.974;2024-02-16T13:04:11;4.50;;;2.42;;
52512;SDS011;38422;53.172;6.974;2024-02-16T13:06:37;3.90;;;2.33;;
52512;SDS011;38422;53.172;6.974;2024-02-16T13:09:03;5.45;;;2.42;;
52512;SDS011;38422;53.172;6.974;2024-02-16T13:11:29;4.90;;;2.40;;
52512;SDS011;38422;53.172;6.974;2024-02-16T13:13:55;4.03;;;2.40;;
52512;SDS011;38422;53.172;6.974;2024-02-16T13:16:21;4.28;;;2.20;;
52512;SDS011;38422;53.172;6.974;2024-02-16T13:18:46;5.68;;;2.30;;
52512;SDS011;38422;53.172;6.974;2024-02-16T13:21:12;3.78;;;2.10;;
52512;SDS011;38422;53.172;6.974;2024-02-16T13:23:38;3.70;;;2.10;;
52512;SDS011;38422;53.172;6.974;2024-02-16T13:26:03;4.10;;;2.28;;
52512;SDS011;38422;53.172;6.974;2024-02-16T13:28:29;5.13;;;2.30;;
52512;SDS011;38422;53.172;6.974;2024-02-16T13:30:55;4.93;;;2.20;;
52512;SDS011;38422;53.172;6.974;2024-02-16T13:33:21;4.03;;;2.20;;
52512;SDS011;38422;53.172;6.974;2024-02-16T13:35:47;6.50;;;2.30;;
52512;SDS011;38422;53.172;6.974;2024-02-16T13:38:13;15.65;;;9.30;;
52512;SDS011;38422;53.172;6.974;2024-02-16T13:40:39;6.85;;;3.35;;
52512;SDS011;38422;53.172;6.974;2024-02-16T13:43:05;7.07;;;4.68;;
52512;SDS011;38422;53.172;6.974;2024-02-16T13:45:47;4.63;;;2.45;;
52512;SDS011;38422;53.172;6.974;2024-02-16T13:48:15;3.85;;;2.40;;
52512;SDS011;38422;53.172;6.974;2024-02-16T13:50:43;12.15;;;8.75;;
52512;SDS011;38422;53.172;6.974;2024-02-16T13:53:13;5.78;;;3.55;;
52512;SDS011;38422;53.172;6.974;2024-02-16T13:55:39;5.32;;;2.95;;
52512;SDS011;38422;53.172;6.974;2024-02-16T13:58:06;2.78;;;1.65;;
52512;SDS011;38422;53.172;6.974;2024-02-16T14:00:32;2.80;;;1.50;;
52512;SDS011;38422;53.172;6.974;2024-02-16T14:02:57;3.78;;;1.65;;
52512;SDS011;38422;53.172;6.974;2024-02-16T14:05:23;1.88;;;1.23;;
52512;SDS011;38422;53.172;6.974;2024-02-16T14:07:50;2.10;;;1.20;;
52512;SDS011;38422;53.172;6.974;2024-02-16T14:10:16;3.25;;;1.70;;
52512;SDS011;38422;53.172;6.974;2024-02-16T14:12:44;2.33;;;1.63;;
52512;SDS011;38422;53.172;6.974;2024-02-16T14:15:10;2.38;;;1.50;;
52512;SDS011;38422;53.172;6.974;2024-02-16T14:17:43;2.78;;;1.73;;
52512;SDS011;38422;53.172;6.974;2024-02-16T14:20:09;3.60;;;1.48;;
52512;SDS011;38422;53.172;6.974;2024-02-16T14:22:36;2.42;;;1.17;;
52512;SDS011;38422;53.172;6.974;2024-02-16T14:25:01;2.90;;;2.00;;
52512;SDS011;38422;53.172;6.974;2024-02-16T14:27:28;3.17;;;1.67;;
52512;SDS011;38422;53.172;6.974;2024-02-16T14:29:54;3.40;;;2.22;;
52512;SDS011;38422;53.172;6.974;2024-02-16T14:32:20;4.38;;;2.70;;
52512;SDS011;38422;53.172;6.974;2024-02-16T14:34:46;1.35;;;1.00;;
52512;SDS011;38422;53.172;6.974;2024-02-16T14:37:12;2.35;;;1.23;;
52512;SDS011;38422;53.172;6.974;2024-02-16T14:39:37;2.40;;;1.77;;
52512;SDS011;38422;53.172;6.974;2024-02-16T14:42:03;3.08;;;2.00;;
52512;SDS011;38422;53.172;6.974;2024-02-16T14:44:29;4.15;;;2.40;;
52512;SDS011;38422;53.172;6.974;2024-02-16T14:46:55;2.83;;;2.08;;
52512;SDS011;38422;53.172;6.974;2024-02-16T14:49:22;4.60;;;3.10;;
52512;SDS011;38422;53.172;6.974;2024-02-16T14:54:15;4.38;;;2.80;;
52512;SDS011;38422;53.172;6.974;2024-02-16T14:56:41;2.40;;;1.85;;